Time;durP1;ratioP1;P1;durP2;ratioP2;P2;SDS_P1;SDS_P2;PMS_P1;PMS_P2;Temp;Humidity;BMP_temperature;BMP_pressure;BME280_temperature;BME280_humidity;BME280_pressure;Samples;Min_cycle;Max_cycle;Signal;HPM_P1;HPM_P2
2022/03/20 00:00:54;;;;;;;24.90;20.90;;;4.90;99.90;;;;;;5006950;28;20240;-67
2022/03/20 00:03:21;;;;;;;27.50;21.20;;;4.90;99.90;;;;;;5011376;28;20194;-68
2022/03/20 00:05:48;;;;;;;25.23;22.50;;;4.80;99.90;;;;;;5008848;28;20441;-67
2022/03/20 00:08:14;;;;;;;27.80;23.90;;;4.80;99.90;;;;;;5007089;28;20465;-67
2022/03/20 00:10:44;;;;;;;33.43;26.93;;;4.80;99.90;;;;;;5012109;28;20492;-67
2022/03/20 00:13:11;;;;;;;30.23;23.10;;;4.80;99.90;;;;;;5008693;28;20572;-68
2022/03/20 00:15:40;;;;;;;27.30;21.50;;;4.80;99.90;;;;;;5012257;28;20429;-68
2022/03/20 00:18:15;;;;;;;26.73;22.47;;;4.70;99.90;;;;;;5012300;28;20964;-67
2022/03/20 00:20:43;;;;;;;28.03;22.50;;;4.70;99.90;;;;;;5012152;28;20551;-67
2022/03/20 00:23:10;;;;;;;28.80;22.70;;;4.70;99.90;;;;;;5012014;28;20458;-67
2022/03/20 00:25:42;;;;;;;30.17;22.70;;;4.70;99.90;;;;;;5011469;28;20446;-68
2022/03/20 00:28:09;;;;;;;27.50;20.90;;;4.80;99.90;;;;;;5012540;28;20525;-68
2022/03/20 00:30:34;;;;;;;25.37;22.30;;;4.80;99.90;;;;;;5012585;28;20572;-68
2022/03/20 00:33:00;;;;;;;24.93;21.37;;;4.80;99.90;;;;;;5010911;28;20525;-67
2022/03/20 00:35:25;;;;;;;25.90;20.77;;;4.80;99.90;;;;;;5008732;28;20274;-67
2022/03/20 00:37:51;;;;;;;28.20;21.23;;;4.80;99.90;;;;;;5000992;28;20201;-68
2022/03/20 00:40:17;;;;;;;25.97;23.00;;;4.80;99.90;;;;;;5004668;28;20214;-67
2022/03/20 00:42:42;;;;;;;24.70;21.90;;;4.70;99.90;;;;;;5004613;28;20205;-67
2022/03/20 00:45:09;;;;;;;27.87;22.50;;;4.70;99.90;;;;;;5004459;28;20285;-67
2022/03/20 00:47:34;;;;;;;27.80;22.93;;;4.70;99.90;;;;;;5008553;28;20188;-68
2022/03/20 00:50:00;;;;;;;27.37;22.20;;;4.70;99.90;;;;;;5010328;28;20457;-67
2022/03/20 00:52:25;;;;;;;26.63;22.27;;;4.80;99.90;;;;;;5011985;28;20604;-68
2022/03/20 00:54:51;;;;;;;26.90;21.50;;;4.70;99.90;;;;;;5012595;28;20937;-67
2022/03/20 00:57:17;;;;;;;28.63;22.20;;;4.70;99.90;;;;;;5005567;28;20182;-68
2022/03/20 00:59:42;;;;;;;25.37;20.90;;;4.60;99.90;;;;;;5007411;28;20207;-68
2022/03/20 01:02:08;;;;;;;30.40;22.03;;;4.60;99.90;;;;;;5010791;28;20266;-68
2022/03/20 01:04:35;;;;;;;26.30;22.70;;;4.70;99.90;;;;;;5010305;28;20206;-68
2022/03/20 01:07:02;;;;;;;30.27;23.40;;;4.70;99.90;;;;;;5012201;28;20261;-67
2022/03/20 01:09:29;;;;;;;26.77;22.50;;;4.80;99.90;;;;;;5004842;28;20456;-67
2022/03/20 01:11:55;;;;;;;25.57;21.67;;;4.80;99.90;;;;;;5010055;28;20903;-67
2022/03/20 01:14:21;;;;;;;26.20;21.43;;;4.80;99.90;;;;;;4986324;28;20952;-67
2022/03/20 01:16:47;;;;;;;30.20;22.80;;;4.80;99.90;;;;;;5009512;28;20470;-67
2022/03/20 01:19:13;;;;;;;27.10;21.87;;;4.80;99.90;;;;;;5006900;28;20459;-67
2022/03/20 01:21:38;;;;;;;26.13;23.33;;;4.80;99.90;;;;;;5011870;28;20245;-67
2022/03/20 01:24:04;;;;;;;28.80;22.60;;;4.80;99.90;;;;;;5007688;28;20190;-67
2022/03/20 01:26:29;;;;;;;27.80;22.33;;;4.80;99.90;;;;;;5010597;28;20195;-67
2022/03/20 01:28:55;;;;;;;27.00;22.77;;;4.80;99.90;;;;;;5008096;28;20489;-68
2022/03/20 01:31:21;;;;;;;29.03;23.43;;;4.70;99.90;;;;;;5007532;28;20221;-68
2022/03/20 01:33:46;;;;;;;27.10;22.80;;;4.70;99.90;;;;;;5011860;28;20262;-67
2022/03/20 01:36:12;;;;;;;24.90;22.20;;;4.70;99.90;;;;;;5002475;28;20270;-68
2022/03/20 01:38:38;;;;;;;29.43;20.33;;;4.70;99.90;;;;;;5001490;28;20187;-67
2022/03/20 01:41:04;;;;;;;24.00;21.47;;;4.60;99.90;;;;;;5002712;28;20210;-67
2022/03/20 01:43:29;;;;;;;25.37;21.60;;;4.60;99.90;;;;;;5005477;28;20441;-68
2022/03/20 01:45:55;;;;;;;25.50;21.27;;;4.50;99.90;;;;;;5010981;28;20650;-67
2022/03/20 01:48:21;;;;;;;26.77;22.30;;;4.50;99.90;;;;;;5010784;28;20187;-68
2022/03/20 01:50:46;;;;;;;28.53;21.90;;;4.50;99.90;;;;;;5005483;28;20242;-67
2022/03/20 01:53:12;;;;;;;28.43;22.60;;;4.50;99.90;;;;;;5010731;28;20203;-68
2022/03/20 01:55:37;;;;;;;27.00;21.83;;;4.50;99.90;;;;;;5010455;28;20175;-68
2022/03/20 01:58:03;;;;;;;30.30;23.33;;;4.50;99.90;;;;;;5009090;28;20209;-67
2022/03/20 02:00:31;;;;;;;25.30;21.60;;;4.50;99.90;;;;;;5011060;28;20206;-67
2022/03/20 02:02:57;;;;;;;28.43;23.07;;;4.50;99.90;;;;;;4992969;28;20641;-67
2022/03/20 02:05:22;;;;;;;27.40;22.03;;;4.30;99.90;;;;;;5010251;28;20841;-68
2022/03/20 02:07:48;;;;;;;27.23;20.67;;;4.30;99.90;;;;;;5007212;28;20597;-68
2022/03/20 02:10:15;;;;;;;26.47;20.50;;;4.30;99.90;;;;;;5006450;28;20269;-67
2022/03/20 02:12:41;;;;;;;24.17;21.37;;;4.30;99.90;;;;;;5011295;28;20590;-68
2022/03/20 02:15:10;;;;;;;27.80;23.17;;;4.30;99.90;;;;;;4990602;28;20465;-68
2022/03/20 02:17:36;;;;;;;28.30;23.27;;;4.30;99.90;;;;;;5010391;28;20470;-67
2022/03/20 02:20:05;;;;;;;25.47;21.33;;;4.40;99.90;;;;;;5002576;28;20505;-68
2022/03/20 02:22:32;;;;;;;25.50;20.17;;;4.30;99.90;;;;;;5008924;28;20233;-68
2022/03/20 02:25:04;;;;;;;24.00;20.77;;;4.40;99.90;;;;;;5009110;28;20456;-67
2022/03/20 02:27:32;;;;;;;23.97;21.20;;;4.40;99.90;;;;;;5011058;28;20449;-67
2022/03/20 02:30:00;;;;;;;23.97;20.70;;;4.40;99.90;;;;;;5009083;28;20461;-68
2022/03/20 02:32:28;;;;;;;24.03;21.33;;;4.50;99.90;;;;;;5010917;28;20469;-68
2022/03/20 02:34:55;;;;;;;28.10;21.70;;;4.50;99.90;;;;;;5008430;28;20446;-68
2022/03/20 02:37:23;;;;;;;25.90;22.30;;;4.50;99.90;;;;;;5000850;28;20438;-68
2022/03/20 02:39:50;;;;;;;29.03;23.33;;;4.50;99.90;;;;;;5010998;28;20847;-68
2022/03/20 02:42:16;;;;;;;24.13;21.23;;;4.50;99.90;;;;;;5008225;28;20475;-68
2022/03/20 02:44:54;;;;;;;27.13;21.97;;;4.50;99.90;;;;;;5009729;28;20438;-68
2022/03/20 02:47:25;;;;;;;28.00;22.67;;;4.40;99.90;;;;;;4999642;28;20491;-68
2022/03/20 02:49:53;;;;;;;24.60;21.33;;;4.40;99.90;;;;;;5002380;28;21024;-68
2022/03/20 02:52:24;;;;;;;26.43;21.77;;;4.40;99.90;;;;;;5003743;28;20843;-68
2022/03/20 02:54:50;;;;;;;26.40;21.83;;;4.40;99.90;;;;;;5008613;28;20548;-67
2022/03/20 02:57:15;;;;;;;28.20;21.57;;;4.40;99.90;;;;;;5012144;28;20437;-68
2022/03/20 02:59:41;;;;;;;22.53;19.97;;;4.40;99.90;;;;;;5011062;28;20468;-68
2022/03/20 03:02:09;;;;;;;26.50;21.53;;;4.50;99.90;;;;;;5013333;28;20188;-68
2022/03/20 03:04:37;;;;;;;26.87;22.20;;;4.50;99.90;;;;;;4993662;28;20182;-68
2022/03/20 03:07:03;;;;;;;28.77;21.50;;;4.50;99.90;;;;;;5005749;28;20495;-67
2022/03/20 03:12:13;;;;;;;28.63;21.70;;;4.40;99.90;;;;;;5014504;28;20983;-67
2022/03/20 03:17:27;;;;;;;27.80;22.37;;;4.40;99.90;;;;;;5008356;28;20186;-68
2022/03/20 03:19:57;;;;;;;26.37;21.93;;;4.30;99.90;;;;;;5009110;28;20458;-68
2022/03/20 03:22:26;;;;;;;23.97;21.47;;;4.30;99.90;;;;;;5006636;28;20446;-67
2022/03/20 03:24:55;;;;;;;21.57;18.10;;;4.20;99.90;;;;;;5010562;28;20442;-68
2022/03/20 03:27:20;;;;;;;24.77;20.13;;;4.30;99.90;;;;;;5005974;28;20433;-66
2022/03/20 03:29:46;;;;;;;29.03;21.27;;;4.40;99.90;;;;;;5010104;28;20552;-68
2022/03/20 03:32:11;;;;;;;26.00;22.00;;;4.50;99.90;;;;;;4989258;28;20207;-68
2022/03/20 03:37:22;;;;;;;23.77;21.20;;;4.50;99.90;;;;;;5003034;28;20661;-67
2022/03/20 03:39:48;;;;;;;28.37;21.00;;;4.50;99.90;;;;;;5009328;28;20461;-68
2022/03/20 03:42:14;;;;;;;26.50;21.40;;;4.50;99.90;;;;;;5011043;28;20440;-67
2022/03/20 03:44:39;;;;;;;24.53;19.97;;;4.50;99.90;;;;;;5014277;28;20198;-68
2022/03/20 03:47:06;;;;;;;24.40;20.73;;;4.50;99.90;;;;;;5013958;28;20437;-67
2022/03/20 03:49:33;;;;;;;30.00;21.03;;;4.50;99.90;;;;;;5010092;28;20729;-68
2022/03/20 03:52:00;;;;;;;31.50;22.43;;;4.40;99.90;;;;;;5010866;28;20465;-67
2022/03/20 03:54:25;;;;;;;22.73;20.17;;;4.40;99.90;;;;;;5009764;28;20852;-68
2022/03/20 03:56:51;;;;;;;24.90;20.20;;;4.40;99.90;;;;;;5007194;28;20434;-67
2022/03/20 03:59:17;;;;;;;25.80;21.07;;;4.40;99.90;;;;;;5012691;28;20222;-67
2022/03/20 04:01:43;;;;;;;28.23;19.80;;;4.50;99.90;;;;;;5007869;28;20191;-67
2022/03/20 04:04:09;;;;;;;24.03;19.87;;;4.50;99.90;;;;;;5010292;28;20445;-67
2022/03/20 04:06:34;;;;;;;25.97;20.80;;;4.50;99.90;;;;;;5011880;28;20253;-67
2022/03/20 04:09:00;;;;;;;24.80;19.90;;;4.50;99.90;;;;;;5004686;28;20207;-67
2022/03/20 04:11:26;;;;;;;23.57;19.77;;;4.50;99.90;;;;;;5009782;28;20213;-67
2022/03/20 04:13:52;;;;;;;27.07;21.00;;;4.50;99.90;;;;;;5013152;28;20179;-67
2022/03/20 04:16:18;;;;;;;23.47;19.70;;;4.40;99.90;;;;;;5008804;28;20854;-68
2022/03/20 04:18:44;;;;;;;22.67;20.27;;;4.40;99.90;;;;;;5010471;28;20456;-67
2022/03/20 04:21:13;;;;;;;24.77;19.83;;;4.50;99.90;;;;;;5011293;28;20561;-67
2022/03/20 04:23:50;;;;;;;24.07;18.17;;;4.50;99.90;;;;;;5009533;28;20539;-67
2022/03/20 04:26:19;;;;;;;22.30;19.00;;;4.50;99.90;;;;;;5007877;28;20464;-67
2022/03/20 04:28:46;;;;;;;26.07;19.87;;;4.50;99.90;;;;;;5011740;28;20570;-67
2022/03/20 04:31:15;;;;;;;25.20;20.70;;;4.50;99.90;;;;;;4987033;28;20473;-67
2022/03/20 04:33:48;;;;;;;24.77;19.83;;;4.50;99.90;;;;;;5010768;28;20437;-68
2022/03/20 04:36:14;;;;;;;20.83;18.50;;;4.50;99.90;;;;;;5011977;28;20535;-67
2022/03/20 04:38:40;;;;;;;25.90;19.83;;;4.50;99.90;;;;;;5009159;28;20454;-67
2022/03/20 04:41:06;;;;;;;22.47;19.40;;;4.50;99.90;;;;;;5012444;28;20464;-67
2022/03/20 04:43:31;;;;;;;26.43;20.07;;;4.60;99.90;;;;;;5008945;28;20647;-67
2022/03/20 04:45:57;;;;;;;23.53;17.93;;;4.60;99.90;;;;;;5009858;28;20187;-67
2022/03/20 04:59:20;;;;;;;23.77;19.00;;;4.70;99.90;;;;;;5010993;28;20587;-67
2022/03/20 05:01:46;;;;;;;23.23;18.70;;;4.70;99.90;;;;;;5011685;28;20456;-67
2022/03/20 05:04:13;;;;;;;25.47;19.90;;;4.70;99.90;;;;;;5011973;28;20441;-67
2022/03/20 05:06:39;;;;;;;28.17;22.77;;;4.70;99.90;;;;;;5007105;28;20449;-67
2022/03/20 05:14:33;;;;;;;25.70;20.20;;;4.70;99.90;;;;;;5001036;28;20492;-67
2022/03/20 05:16:58;;;;;;;29.07;22.63;;;4.70;99.90;;;;;;5012614;28;20437;-67
2022/03/20 05:19:24;;;;;;;27.53;22.97;;;4.70;99.90;;;;;;5006503;28;20279;-67
2022/03/20 05:21:49;;;;;;;27.20;22.43;;;4.70;99.90;;;;;;5004243;28;20275;-67
2022/03/20 05:24:16;;;;;;;27.03;21.43;;;4.60;99.90;;;;;;5011045;28;20678;-67
2022/03/20 05:26:42;;;;;;;27.63;22.77;;;4.60;99.90;;;;;;4992819;28;20213;-67
2022/03/20 05:29:07;;;;;;;30.10;23.00;;;4.70;99.90;;;;;;5011331;28;20493;-67
2022/03/20 05:31:33;;;;;;;27.97;21.40;;;4.70;99.90;;;;;;5007262;28;20613;-67
2022/03/20 05:33:59;;;;;;;27.87;22.77;;;4.70;99.90;;;;;;5014210;28;20190;-67
2022/03/20 05:36:29;;;;;;;27.10;23.40;;;4.70;99.90;;;;;;5010806;28;20262;-67
2022/03/20 05:38:56;;;;;;;29.97;23.97;;;4.70;99.90;;;;;;5006980;28;20476;-67
2022/03/20 05:42:06;;;;;;;28.57;22.43;;;4.70;99.90;;;;;;5010516;28;20987;-68
2022/03/20 05:44:08;;;;;;;27.50;21.60;;;4.70;99.90;;;;;;4994561;28;20464;-67
2022/03/20 05:46:34;;;;;;;30.30;23.70;;;4.70;99.90;;;;;;5007865;28;20818;-67
2022/03/20 05:48:59;;;;;;;30.10;21.80;;;4.80;99.90;;;;;;5002254;28;20457;-67
2022/03/20 05:51:25;;;;;;;30.63;22.97;;;4.80;99.90;;;;;;5004056;28;20203;-67
2022/03/20 05:53:50;;;;;;;28.10;21.47;;;4.90;99.90;;;;;;5004828;28;20183;-67
2022/03/20 05:59:00;;;;;;;28.20;21.57;;;5.00;99.90;;;;;;5004279;28;20357;-67
2022/03/20 06:01:26;;;;;;;27.60;21.70;;;5.00;99.90;;;;;;5001199;28;20989;-67
2022/03/20 06:03:52;;;;;;;30.20;20.63;;;5.00;99.90;;;;;;5007349;28;20183;-67
2022/03/20 06:06:17;;;;;;;27.53;22.13;;;5.10;99.90;;;;;;5013288;28;20524;-67
2022/03/20 06:08:43;;;;;;;31.30;23.60;;;5.20;99.90;;;;;;4990044;28;20949;-67
2022/03/20 06:11:08;;;;;;;25.87;22.10;;;5.10;99.90;;;;;;5009372;28;20214;-67
2022/03/20 06:13:35;;;;;;;29.43;22.10;;;5.10;99.90;;;;;;4986791;28;20262;-67
2022/03/20 06:16:01;;;;;;;26.03;21.63;;;5.10;99.90;;;;;;5001986;28;20205;-67
2022/03/20 06:18:27;;;;;;;24.83;21.00;;;5.20;99.90;;;;;;5009284;28;20521;-67
2022/03/20 06:20:53;;;;;;;28.63;21.77;;;5.20;99.90;;;;;;5010990;28;20544;-68
2022/03/20 06:23:19;;;;;;;26.67;23.77;;;5.30;99.90;;;;;;5003914;28;20437;-67
2022/03/20 06:25:45;;;;;;;28.77;23.10;;;5.30;99.90;;;;;;5008953;28;20956;-67
2022/03/20 06:28:10;;;;;;;26.50;22.00;;;5.30;99.90;;;;;;5006359;28;20601;-67
2022/03/20 06:30:36;;;;;;;26.97;23.00;;;5.40;99.90;;;;;;5006211;28;20713;-67
2022/03/20 06:33:02;;;;;;;28.10;22.50;;;5.40;99.90;;;;;;5011378;28;20643;-67
2022/03/20 06:35:28;;;;;;;28.00;22.90;;;5.40;99.90;;;;;;5015259;28;20175;-67
2022/03/20 06:37:54;;;;;;;25.60;20.90;;;5.50;99.90;;;;;;5011780;28;21023;-67
2022/03/20 06:40:21;;;;;;;30.50;23.73;;;5.60;99.90;;;;;;5006213;28;20218;-67
2022/03/20 06:42:47;;;;;;;27.10;23.03;;;5.70;99.90;;;;;;5008548;28;20441;-67
2022/03/20 06:45:13;;;;;;;33.50;23.00;;;5.80;99.90;;;;;;5012108;28;21014;-70
2022/03/20 06:47:41;;;;;;;28.70;23.33;;;5.80;99.90;;;;;;5009528;28;20521;-67
2022/03/20 06:50:08;;;;;;;28.33;23.90;;;5.80;99.90;;;;;;5002693;28;20550;-67
2022/03/20 06:52:34;;;;;;;32.30;22.30;;;5.80;99.90;;;;;;5011691;28;20465;-67
2022/03/20 06:55:02;;;;;;;29.17;24.10;;;5.80;99.90;;;;;;5011778;28;20472;-67
2022/03/20 06:57:30;;;;;;;36.63;25.73;;;5.90;99.90;;;;;;5012413;28;20525;-67
2022/03/20 06:59:58;;;;;;;30.77;25.10;;;6.00;99.90;;;;;;5013957;28;20458;-67
2022/03/20 07:02:24;;;;;;;28.10;24.13;;;6.20;99.90;;;;;;5021161;28;20437;-66
2022/03/20 07:04:53;;;;;;;27.50;23.33;;;6.30;99.90;;;;;;5014991;28;20425;-68
2022/03/20 07:07:20;;;;;;;28.67;23.80;;;6.50;99.90;;;;;;5004297;28;20478;-67
2022/03/20 07:09:46;;;;;;;28.20;23.30;;;6.70;99.90;;;;;;5010015;28;20463;-66
2022/03/20 07:12:12;;;;;;;31.17;26.30;;;6.80;99.90;;;;;;5012895;28;20953;-66
2022/03/20 07:14:39;;;;;;;28.93;24.03;;;6.90;99.90;;;;;;5012874;28;20183;-66
2022/03/20 07:17:09;;;;;;;27.70;22.97;;;7.00;99.90;;;;;;5013942;28;20937;-66
2022/03/20 07:19:35;;;;;;;33.83;25.60;;;7.10;99.90;;;;;;5012156;28;21021;-67
2022/03/20 07:22:02;;;;;;;30.63;25.20;;;7.30;99.90;;;;;;5012559;28;20593;-67
2022/03/20 07:24:27;;;;;;;29.20;25.87;;;7.40;99.90;;;;;;5012982;28;20438;-67
2022/03/20 07:29:38;;;;;;;34.53;26.53;;;7.70;99.90;;;;;;5008916;28;20697;-67
2022/03/20 07:32:06;;;;;;;28.37;23.93;;;7.80;99.90;;;;;;5013134;28;20461;-66
2022/03/20 07:34:35;;;;;;;31.87;26.40;;;7.80;99.90;;;;;;5009062;28;20171;-67
2022/03/20 07:37:01;;;;;;;33.10;26.20;;;7.80;99.90;;;;;;5008992;28;20438;-67
2022/03/20 07:39:28;;;;;;;32.87;27.07;;;8.00;99.90;;;;;;5008054;28;20460;-66
2022/03/20 07:41:53;;;;;;;30.20;25.83;;;8.10;99.90;;;;;;5008621;28;20450;-67
2022/03/20 07:44:19;;;;;;;35.43;26.93;;;8.20;99.90;;;;;;5009429;28;20446;-67
2022/03/20 07:46:44;;;;;;;31.53;25.47;;;8.60;99.90;;;;;;5013523;28;20244;-67
2022/03/20 07:49:10;;;;;;;28.43;25.47;;;8.70;99.90;;;;;;5011301;28;20213;-67
2022/03/20 07:51:36;;;;;;;31.13;26.00;;;8.90;99.90;;;;;;5011914;28;20249;-67
2022/03/20 07:54:02;;;;;;;31.53;25.33;;;8.80;99.90;;;;;;5007517;28;20561;-67
2022/03/20 07:56:30;;;;;;;32.93;26.90;;;8.90;99.90;;;;;;5013202;28;20430;-67
2022/03/20 07:58:56;;;;;;;30.30;26.10;;;9.10;99.90;;;;;;5010281;28;20445;-67
2022/03/20 08:01:21;;;;;;;29.73;25.70;;;9.40;99.90;;;;;;5010353;28;20452;-67
2022/03/20 08:03:48;;;;;;;31.53;25.33;;;9.50;99.90;;;;;;5010759;28;20187;-66
2022/03/20 08:06:15;;;;;;;27.30;24.37;;;9.70;99.90;;;;;;5011171;28;20218;-67
2022/03/20 08:08:41;;;;;;;31.03;25.30;;;9.80;99.10;;;;;;5010665;28;20756;-67
2022/03/20 08:11:07;;;;;;;31.77;26.10;;;9.80;98.50;;;;;;4987512;28;20497;-67
2022/03/20 08:13:33;;;;;;;27.60;24.37;;;10.10;98.20;;;;;;5008371;28;20434;-68
2022/03/20 08:15:59;;;;;;;31.87;25.93;;;10.50;97.50;;;;;;5006359;28;20217;-67
2022/03/20 08:18:25;;;;;;;30.93;26.27;;;10.90;96.70;;;;;;5008729;28;20171;-67
2022/03/20 08:20:51;;;;;;;33.03;25.53;;;11.10;95.60;;;;;;5009228;28;20453;-67
2022/03/20 08:23:16;;;;;;;30.57;27.33;;;11.00;95.20;;;;;;5009891;28;20183;-67
2022/03/20 08:25:42;;;;;;;28.10;25.07;;;10.90;95.00;;;;;;5007314;28;20194;-66
2022/03/20 08:28:12;;;;;;;29.87;25.10;;;10.80;94.90;;;;;;5007525;28;20383;-67
2022/03/20 08:30:41;;;;;;;31.53;26.03;;;10.90;95.00;;;;;;4984337;28;20470;-67
2022/03/20 08:33:06;;;;;;;30.00;26.73;;;10.90;94.40;;;;;;5010251;28;20438;-67
2022/03/20 08:35:32;;;;;;;33.23;27.17;;;10.90;94.30;;;;;;5009697;28;20439;-67
2022/03/20 08:37:57;;;;;;;30.37;24.70;;;11.10;94.00;;;;;;5012231;28;20666;-67
2022/03/20 08:40:24;;;;;;;27.57;24.70;;;11.10;93.60;;;;;;5009701;28;20217;-67
2022/03/20 08:42:55;;;;;;;32.43;24.90;;;11.40;93.40;;;;;;5009461;28;20208;-67
2022/03/20 08:45:26;;;;;;;29.43;26.23;;;11.40;93.10;;;;;;5005435;28;20437;-67
2022/03/20 08:47:52;;;;;;;32.30;25.67;;;11.50;92.70;;;;;;5003889;28;20437;-67
2022/03/20 08:50:19;;;;;;;32.10;25.47;;;11.90;92.60;;;;;;5012522;28;20458;-67
2022/03/20 08:52:46;;;;;;;28.53;25.53;;;12.60;92.10;;;;;;5008192;28;20548;-67
2022/03/20 08:55:12;;;;;;;33.50;29.83;;;13.00;90.70;;;;;;5008724;28;20435;-67
2022/03/20 08:57:48;;;;;;;30.27;26.07;;;13.20;90.60;;;;;;5008570;28;20441;-67
2022/03/20 09:00:16;;;;;;;27.57;24.73;;;13.70;87.80;;;;;;5011802;28;20511;-67
2022/03/20 09:02:43;;;;;;;26.53;23.70;;;13.80;84.30;;;;;;5006712;28;20438;-67
2022/03/20 09:05:11;;;;;;;28.57;25.50;;;14.10;81.90;;;;;;5008602;28;20478;-67
2022/03/20 09:07:41;;;;;;;30.20;24.37;;;14.20;79.90;;;;;;5012086;28;20971;-67
2022/03/20 09:10:08;;;;;;;29.03;25.93;;;14.70;77.90;;;;;;5004072;28;20485;-67
2022/03/20 09:12:37;;;;;;;26.63;23.63;;;15.00;75.30;;;;;;5010629;28;20461;-68
2022/03/20 09:15:04;;;;;;;26.30;23.60;;;15.10;73.70;;;;;;5004007;28;20462;-67
2022/03/20 09:20:15;;;;;;;24.17;21.70;;;15.80;70.20;;;;;;5004758;28;20488;-68
2022/03/20 09:22:41;;;;;;;26.67;23.30;;;15.90;67.90;;;;;;4990987;28;20442;-68
2022/03/20 09:25:07;;;;;;;25.57;22.90;;;16.10;67.70;;;;;;5013250;28;20433;-67
2022/03/20 09:27:34;;;;;;;26.07;23.33;;;16.30;65.40;;;;;;5011582;28;20179;-67
2022/03/20 09:30:00;;;;;;;27.47;24.67;;;16.40;64.30;;;;;;5006694;28;20461;-68
2022/03/20 09:32:26;;;;;;;26.13;23.33;;;17.10;63.10;;;;;;5010226;28;20469;-68
2022/03/20 09:34:51;;;;;;;24.93;22.33;;;17.70;60.20;;;;;;5006941;28;20488;-67
2022/03/20 09:37:17;;;;;;;26.17;23.67;;;17.30;60.90;;;;;;5004680;28;20669;-67
2022/03/20 09:39:43;;;;;;;26.77;24.03;;;17.50;59.80;;;;;;5003355;28;20259;-67
2022/03/20 09:42:09;;;;;;;23.83;21.63;;;17.80;59.40;;;;;;5007950;28;20569;-67
2022/03/20 09:44:38;;;;;;;27.00;24.20;;;18.20;58.30;;;;;;5005323;28;20522;-68
2022/03/20 09:47:11;;;;;;;27.73;24.93;;;18.00;58.40;;;;;;5009199;28;20178;-67
2022/03/20 09:49:37;;;;;;;27.70;24.93;;;17.90;59.50;;;;;;5007939;28;20479;-67
2022/03/20 09:52:07;;;;;;;27.30;24.50;;;17.80;59.90;;;;;;5006432;28;20999;-68
2022/03/20 09:54:34;;;;;;;26.13;23.73;;;18.50;59.30;;;;;;5008443;28;20179;-68
2022/03/20 09:57:08;;;;;;;34.17;24.10;;;18.70;59.00;;;;;;5013621;28;20523;-68
2022/03/20 09:59:36;;;;;;;27.43;24.60;;;18.80;59.20;;;;;;5005386;28;20968;-68
2022/03/20 10:02:03;;;;;;;25.43;22.80;;;19.20;59.20;;;;;;5011205;28;20448;-68
2022/03/20 10:04:29;;;;;;;25.50;23.00;;;20.10;57.80;;;;;;5007714;28;20452;-67
2022/03/20 10:06:55;;;;;;;26.37;23.63;;;19.90;57.40;;;;;;5007402;28;20454;-68
2022/03/20 10:09:23;;;;;;;25.13;22.70;;;18.30;58.10;;;;;;5010778;28;20237;-67
2022/03/20 10:11:54;;;;;;;25.37;22.80;;;17.30;60.40;;;;;;5008883;28;20218;-68
2022/03/20 10:14:34;;;;;;;26.80;24.20;;;16.70;62.00;;;;;;5003520;28;20449;-68
2022/03/20 10:17:14;;;;;;;26.17;23.43;;;16.30;62.90;;;;;;5008364;28;20533;-68
2022/03/20 10:19:40;;;;;;;29.50;25.97;;;15.90;64.30;;;;;;5009027;28;20460;-67
2022/03/20 10:22:11;;;;;;;27.80;24.90;;;15.90;65.20;;;;;;5010961;28;20437;-67
2022/03/20 10:24:39;;;;;;;27.43;23.73;;;16.00;65.80;;;;;;5008875;28;20475;-68
2022/03/20 10:27:08;;;;;;;28.00;25.03;;;16.00;65.20;;;;;;5001417;28;20441;-67
2022/03/20 10:29:35;;;;;;;28.93;24.80;;;16.10;66.40;;;;;;5003296;28;20468;-68
2022/03/20 10:32:11;;;;;;;25.33;22.40;;;15.90;67.50;;;;;;4985062;28;20470;-68
2022/03/20 10:34:57;;;;;;;30.40;24.73;;;15.80;68.10;;;;;;5007092;28;20444;-67
2022/03/20 10:37:46;;;;;;;27.90;24.47;;;15.60;68.50;;;;;;5005373;28;20446;-68
2022/03/20 10:40:17;;;;;;;26.00;23.20;;;15.60;68.50;;;;;;5005492;28;20460;-67
2022/03/20 10:43:13;;;;;;;24.10;21.50;;;15.50;70.70;;;;;;5002704;28;20454;-67
2022/03/20 10:45:56;;;;;;;28.07;21.53;;;15.60;71.20;;;;;;4997876;28;20940;-68
2022/03/20 10:48:30;;;;;;;30.10;22.60;;;15.90;70.80;;;;;;5003986;28;20442;-68
2022/03/20 10:50:57;;;;;;;24.13;21.63;;;15.50;71.10;;;;;;5008282;28;20554;-67
2022/03/20 10:53:22;;;;;;;24.27;21.67;;;15.60;71.50;;;;;;5009983;28;20444;-68
2022/03/20 10:55:50;;;;;;;26.00;21.47;;;15.90;70.80;;;;;;5009090;28;20437;-68
2022/03/20 10:58:26;;;;;;;24.37;19.60;;;15.90;70.60;;;;;;5008723;28;20179;-69
2022/03/20 11:00:52;;;;;;;22.77;20.40;;;16.00;69.80;;;;;;5008809;28;20536;-68
2022/03/20 11:03:22;;;;;;;30.83;21.33;;;15.90;69.70;;;;;;5016618;28;20457;-68
2022/03/20 11:05:48;;;;;;;22.93;19.70;;;16.00;69.60;;;;;;5011383;28;20433;-67
2022/03/20 11:08:14;;;;;;;23.00;20.00;;;16.00;69.10;;;;;;4997703;28;20869;-68
2022/03/20 11:10:44;;;;;;;24.37;18.30;;;16.10;68.70;;;;;;5000157;28;20519;-68
2022/03/20 11:13:13;;;;;;;21.40;19.27;;;16.20;67.80;;;;;;5008944;28;20250;-68
2022/03/20 11:15:39;;;;;;;22.70;20.30;;;16.70;68.70;;;;;;5003444;28;20438;-67
2022/03/20 11:18:06;;;;;;;22.10;19.90;;;17.20;67.40;;;;;;5004725;28;20434;-67
2022/03/20 11:20:32;;;;;;;20.60;18.50;;;19.80;63.70;;;;;;5013814;28;20536;-68
2022/03/20 11:23:01;;;;;;;25.37;20.50;;;23.10;55.50;;;;;;5007657;28;20433;-69
2022/03/20 11:25:30;;;;;;;20.43;18.37;;;25.00;49.50;;;;;;5011278;28;20523;-69
2022/03/20 11:28:01;;;;;;;16.87;15.30;;;26.20;45.90;;;;;;5005144;28;20434;-68
2022/03/20 11:30:35;;;;;;;17.00;15.43;;;25.70;43.50;;;;;;5007652;28;20461;-69
2022/03/20 11:33:02;;;;;;;16.73;14.90;;;26.10;42.80;;;;;;5007468;28;20936;-69
2022/03/20 11:35:34;;;;;;;15.57;13.90;;;24.70;43.20;;;;;;5007498;28;20528;-68
2022/03/20 11:38:24;;;;;;;16.17;14.53;;;24.70;43.70;;;;;;5008124;28;20869;-69
2022/03/20 11:41:06;;;;;;;14.33;12.80;;;27.30;41.60;;;;;;5008406;28;20443;-68
2022/03/20 11:43:32;;;;;;;13.53;12.17;;;27.30;40.10;;;;;;5004916;28;20442;-70
2022/03/20 11:46:30;;;;;;;13.47;12.07;;;26.20;39.50;;;;;;5004983;28;20439;-69
2022/03/20 11:49:13;;;;;;;15.77;12.53;;;25.30;40.50;;;;;;5005104;28;20454;-68
2022/03/20 11:52:07;;;;;;;12.80;11.60;;;25.90;39.70;;;;;;5005113;28;20462;-69
2022/03/20 11:54:53;;;;;;;11.33;10.40;;;26.40;39.30;;;;;;5002897;28;20433;-69
2022/03/20 11:57:28;;;;;;;11.00;9.97;;;27.40;37.90;;;;;;5005404;28;20430;-68
2022/03/20 11:59:55;;;;;;;13.87;11.10;;;27.60;37.20;;;;;;5008211;28;20973;-69
2022/03/20 12:02:41;;;;;;;12.33;10.73;;;27.00;35.30;;;;;;5005464;28;20871;-68
2022/03/20 12:05:35;;;;;;;11.00;9.90;;;27.00;36.20;;;;;;5007635;28;20437;-68
2022/03/20 12:08:20;;;;;;;12.73;9.73;;;24.20;36.90;;;;;;5006833;28;20439;-69
2022/03/20 12:11:10;;;;;;;11.40;10.10;;;22.90;39.30;;;;;;5013048;28;20592;-67
2022/03/20 12:14:11;;;;;;;11.93;10.67;;;21.40;41.00;;;;;;5005699;28;20441;-68
2022/03/20 12:16:50;;;;;;;10.33;9.20;;;20.80;41.70;;;;;;5003947;28;20438;-69
2022/03/20 12:19:18;;;;;;;11.13;9.97;;;20.50;42.20;;;;;;5012154;28;20452;-69
2022/03/20 12:21:59;;;;;;;11.23;9.83;;;21.30;41.90;;;;;;5005619;28;20466;-68
2022/03/20 12:24:34;;;;;;;9.80;9.00;;;21.60;41.30;;;;;;4998276;28;20437;-68
2022/03/20 12:27:22;;;;;;;13.80;9.90;;;22.00;41.30;;;;;;5006043;28;20523;-68
2022/03/20 12:29:49;;;;;;;12.00;10.80;;;22.40;40.60;;;;;;5000318;28;20469;-68
2022/03/20 12:32:15;;;;;;;13.57;11.20;;;22.50;40.70;;;;;;5005499;28;20847;-68
2022/03/20 12:34:43;;;;;;;11.60;10.43;;;22.30;41.60;;;;;;5012783;28;20464;-68
2022/03/20 12:37:27;;;;;;;12.57;11.27;;;22.40;41.40;;;;;;5005171;28;20456;-68
2022/03/20 12:39:54;;;;;;;12.20;11.03;;;22.30;41.60;;;;;;5006394;28;20458;-68
2022/03/20 12:42:23;;;;;;;11.50;10.40;;;22.20;41.10;;;;;;5004822;28;20457;-69
2022/03/20 12:44:52;;;;;;;13.23;11.93;;;22.50;41.10;;;;;;5012535;28;20484;-68
2022/03/20 12:47:24;;;;;;;14.00;11.30;;;22.90;41.00;;;;;;5011665;28;20846;-68
2022/03/20 12:49:58;;;;;;;11.90;10.97;;;24.50;39.70;;;;;;5007895;28;20472;-68
2022/03/20 12:52:24;;;;;;;13.43;12.03;;;26.10;38.40;;;;;;5000853;28;20460;-70
2022/03/20 12:54:55;;;;;;;16.83;14.97;;;27.20;37.30;;;;;;5010782;28;20992;-68
2022/03/20 12:57:50;;;;;;;13.80;12.50;;;27.60;36.50;;;;;;5004319;28;20441;-68
2022/03/20 13:00:21;;;;;;;14.90;11.97;;;28.50;36.60;;;;;;5011683;28;20453;-68
2022/03/20 13:03:07;;;;;;;14.80;13.50;;;29.90;34.80;;;;;;5011698;28;20520;-67
2022/03/20 13:05:38;;;;;;;16.50;15.00;;;29.00;33.90;;;;;;4995133;28;20430;-69
2022/03/20 13:08:04;;;;;;;16.60;14.70;;;25.80;36.20;;;;;;5007935;28;20500;-69
2022/03/20 13:10:38;;;;;;;16.63;15.10;;;24.70;38.20;;;;;;5003689;28;20464;-68
2022/03/20 13:13:05;;;;;;;15.83;14.07;;;22.80;42.90;;;;;;5010985;28;20426;-68